Bromborough, United Kingdom
Current Conditions -  °F | °C
As of 10:20 AM on Thursday 23 Oct 2014 (Local Time) from EGGP Reporting Station
Broken Clouds Broken Clouds  
Wind Chill: 55°   Ceiling: 2500
Heat Index: 55°   Visibility: 6mi
Dew Point: 52°   Wind: 7mph
Humidity: 88%   Direction: 160°SSE
Pressure: 29.97"   Gusts: NA
Location:  53.33°N, 2.97°W
Report Text: EGGP 230920Z 16006KT 100V210 9999 BKN025 13/11 Q1015
Loading
Personal Weather Stations






























Interactive Weather Map
Tropical Storm Tracking
New forecast layout! Learn more

10-Day Weather Forecast

Advertisements
Track Severe Weather on mobile